sensor_id;sensor_type;location;lat;lon;timestamp;temperature;humidity
1830;DHT22;914;48.118;11.600;2022-09-12T00:01:10;14.90;99.90
1830;DHT22;914;48.118;11.600;2022-09-12T00:03:37;15.00;99.90
1830;DHT22;914;48.118;11.600;2022-09-12T00:06:19;15.00;99.90
1830;DHT22;914;48.118;11.600;2022-09-12T00:08:45;15.00;99.90
1830;DHT22;914;48.118;11.600;2022-09-12T00:11:12;15.00;99.90
1830;DHT22;914;48.118;11.600;2022-09-12T00:13:38;15.00;99.90
1830;DHT22;914;48.118;11.600;2022-09-12T00:16:05;15.10;99.90
1830;DHT22;914;48.118;11.600;2022-09-12T00:18:31;15.10;99.90
1830;DHT22;914;48.118;11.600;2022-09-12T00:21:01;15.10;99.90
1830;DHT22;914;48.118;11.600;2022-09-12T00:23:29;14.90;99.90
1830;DHT22;914;48.118;11.600;2022-09-12T00:25:55;14.90;99.90
1830;DHT22;914;48.118;11.600;2022-09-12T00:28:20;14.80;99.90
1830;DHT22;914;48.118;11.600;2022-09-12T00:30:47;14.70;99.90
1830;DHT22;914;48.118;11.600;2022-09-12T00:33:15;14.80;99.90
1830;DHT22;914;48.118;11.600;2022-09-12T00:35:48;14.60;99.90
1830;DHT22;914;48.118;11.600;2022-09-12T00:38:15;14.60;99.90
1830;DHT22;914;48.118;11.600;2022-09-12T00:40:42;14.60;99.90
1830;DHT22;914;48.118;11.600;2022-09-12T00:43:33;14.70;99.90
1830;DHT22;914;48.118;11.600;2022-09-12T00:46:03;14.70;99.90
1830;DHT22;914;48.118;11.600;2022-09-12T00:48:51;14.60;99.90
1830;DHT22;914;48.118;11.600;2022-09-12T00:51:19;14.60;99.90
1830;DHT22;914;48.118;11.600;2022-09-12T00:53:46;14.70;99.90
1830;DHT22;914;48.118;11.600;2022-09-12T00:56:14;14.70;99.90
1830;DHT22;914;48.118;11.600;2022-09-12T00:58:46;14.70;99.90
1830;DHT22;914;48.118;11.600;2022-09-12T01:01:14;14.70;99.90
1830;DHT22;914;48.118;11.600;2022-09-12T01:03:40;14.60;99.90
1830;DHT22;914;48.118;11.600;2022-09-12T01:06:17;14.40;99.90
1830;DHT22;914;48.118;11.600;2022-09-12T01:08:46;14.40;99.90
1830;DHT22;914;48.118;11.600;2022-09-12T01:11:12;14.40;99.90
1830;DHT22;914;48.118;11.600;2022-09-12T01:13:38;14.50;99.90
1830;DHT22;914;48.118;11.600;2022-09-12T01:16:05;14.50;99.90
1830;DHT22;914;48.118;11.600;2022-09-12T01:19:04;14.50;99.90
1830;DHT22;914;48.118;11.600;2022-09-12T01:33:09;14.40;99.90
1830;DHT22;914;48.118;11.600;2022-09-12T01:43:43;14.30;99.90
1830;DHT22;914;48.118;11.600;2022-09-12T01:46:20;14.20;99.90
1830;DHT22;914;48.118;11.600;2022-09-12T01:49:02;13.70;99.90
1830;DHT22;914;48.118;11.600;2022-09-12T01:51:38;13.70;99.90
1830;DHT22;914;48.118;11.600;2022-09-12T01:54:12;13.90;99.90
1830;DHT22;914;48.118;11.600;2022-09-12T01:56:42;14.10;99.90
1830;DHT22;914;48.118;11.600;2022-09-12T01:59:19;14.10;99.90
1830;DHT22;914;48.118;11.600;2022-09-12T02:02:03;14.20;99.90
1830;DHT22;914;48.118;11.600;2022-09-12T02:08:23;14.10;99.90
1830;DHT22;914;48.118;11.600;2022-09-12T02:10:31;14.10;99.90
1830;DHT22;914;48.118;11.600;2022-09-12T02:13:14;14.20;99.90
1830;DHT22;914;48.118;11.600;2022-09-12T02:15:58;14.20;99.90
1830;DHT22;914;48.118;11.600;2022-09-12T02:18:25;14.20;99.90
1830;DHT22;914;48.118;11.600;2022-09-12T02:20:53;14.20;99.90
1830;DHT22;914;48.118;11.600;2022-09-12T02:23:23;14.20;99.90
1830;DHT22;914;48.118;11.600;2022-09-12T02:25:54;14.10;99.90
1830;DHT22;914;48.118;11.600;2022-09-12T02:28:30;14.20;99.90
1830;DHT22;914;48.118;11.600;2022-09-12T02:37:11;14.30;99.90
1830;DHT22;914;48.118;11.600;2022-09-12T02:39:11;14.20;99.90
1830;DHT22;914;48.118;11.600;2022-09-12T02:41:37;14.20;99.90
1830;DHT22;914;48.118;11.600;2022-09-12T02:44:03;14.20;99.90
1830;DHT22;914;48.118;11.600;2022-09-12T02:46:41;14.10;99.90
1830;DHT22;914;48.118;11.600;2022-09-12T02:49:07;14.00;99.90
1830;DHT22;914;48.118;11.600;2022-09-12T02:51:33;13.90;99.90
1830;DHT22;914;48.118;11.600;2022-09-12T02:53:59;13.90;99.90
1830;DHT22;914;48.118;11.600;2022-09-12T02:56:28;13.90;99.90
1830;DHT22;914;48.118;11.600;2022-09-12T02:58:59;13.90;99.90
1830;DHT22;914;48.118;11.600;2022-09-12T03:01:59;13.80;99.90
1830;DHT22;914;48.118;11.600;2022-09-12T03:07:58;13.80;99.90
1830;DHT22;914;48.118;11.600;2022-09-12T03:13:33;13.80;99.90
1830;DHT22;914;48.118;11.600;2022-09-12T03:18:54;13.70;99.90
1830;DHT22;914;48.118;11.600;2022-09-12T03:21:32;13.60;99.90
1830;DHT22;914;48.118;11.600;2022-09-12T03:26:54;13.40;99.90
1830;DHT22;914;48.118;11.600;2022-09-12T03:29:21;13.40;99.90
1830;DHT22;914;48.118;11.600;2022-09-12T03:31:53;13.50;99.90
1830;DHT22;914;48.118;11.600;2022-09-12T03:34:21;13.60;99.90
1830;DHT22;914;48.118;11.600;2022-09-12T03:36:47;13.60;99.90
1830;DHT22;914;48.118;11.600;2022-09-12T03:39:14;13.70;99.90
1830;DHT22;914;48.118;11.600;2022-09-12T03:41:39;13.70;99.90
1830;DHT22;914;48.118;11.600;2022-09-12T03:44:05;13.70;99.90
1830;DHT22;914;48.118;11.600;2022-09-12T03:46:31;13.70;99.90
1830;DHT22;914;48.118;11.600;2022-09-12T03:48:56;13.60;99.90
1830;DHT22;914;48.118;11.600;2022-09-12T03:51:22;13.60;99.90
1830;DHT22;914;48.118;11.600;2022-09-12T03:53:48;13.60;99.90
1830;DHT22;914;48.118;11.600;2022-09-12T03:56:13;13.40;99.90
1830;DHT22;914;48.118;11.600;2022-09-12T03:58:40;13.40;99.90
1830;DHT22;914;48.118;11.600;2022-09-12T04:01:10;13.40;99.90
1830;DHT22;914;48.118;11.600;2022-09-12T04:03:38;13.50;99.90
1830;DHT22;914;48.118;11.600;2022-09-12T04:06:05;13.50;99.90
1830;DHT22;914;48.118;11.600;2022-09-12T04:08:30;13.50;99.90
1830;DHT22;914;48.118;11.600;2022-09-12T04:11:04;13.60;99.90
1830;DHT22;914;48.118;11.600;2022-09-12T04:13:30;13.60;99.90
1830;DHT22;914;48.118;11.600;2022-09-12T04:15:56;13.60;99.90
1830;DHT22;914;48.118;11.600;2022-09-12T04:18:22;13.50;99.90
1830;DHT22;914;48.118;11.600;2022-09-12T04:20:48;13.50;99.90
1830;DHT22;914;48.118;11.600;2022-09-12T04:23:13;13.50;99.90
1830;DHT22;914;48.118;11.600;2022-09-12T04:25:39;13.40;99.90
1830;DHT22;914;48.118;11.600;2022-09-12T04:28:04;13.40;99.90
1830;DHT22;914;48.118;11.600;2022-09-12T04:30:31;13.40;99.90
1830;DHT22;914;48.118;11.600;2022-09-12T04:32:57;13.40;99.90
1830;DHT22;914;48.118;11.600;2022-09-12T04:35:23;13.40;99.90
1830;DHT22;914;48.118;11.600;2022-09-12T04:37:48;13.40;99.90
1830;DHT22;914;48.118;11.600;2022-09-12T04:40:14;13.40;99.90
1830;DHT22;914;48.118;11.600;2022-09-12T04:42:40;13.40;99.90
1830;DHT22;914;48.118;11.600;2022-09-12T04:45:06;13.40;99.90
1830;DHT22;914;48.118;11.600;2022-09-12T04:47:32;13.30;99.90
1830;DHT22;914;48.118;11.600;2022-09-12T04:49:57;13.20;99.90
1830;DHT22;914;48.118;11.600;2022-09-12T04:52:23;13.10;99.90
1830;DHT22;914;48.118;11.600;2022-09-12T04:54:49;13.20;99.90
1830;DHT22;914;48.118;11.600;2022-09-12T04:57:15;13.30;99.90
1830;DHT22;914;48.118;11.600;2022-09-12T04:59:40;13.30;99.90
1830;DHT22;914;48.118;11.600;2022-09-12T05:02:06;13.40;99.90
1830;DHT22;914;48.118;11.600;2022-09-12T05:04:31;13.40;99.90
1830;DHT22;914;48.118;11.600;2022-09-12T05:06:57;13.40;99.90
1830;DHT22;914;48.118;11.600;2022-09-12T05:09:23;13.30;99.90
1830;DHT22;914;48.118;11.600;2022-09-12T05:11:48;13.30;99.90
1830;DHT22;914;48.118;11.600;2022-09-12T05:14:14;13.30;99.90
1830;DHT22;914;48.118;11.600;2022-09-12T05:16:39;13.20;99.90
1830;DHT22;914;48.118;11.600;2022-09-12T05:19:05;13.20;99.90
1830;DHT22;914;48.118;11.600;2022-09-12T05:21:31;13.20;99.90
1830;DHT22;914;48.118;11.600;2022-09-12T05:23:58;13.10;99.90
1830;DHT22;914;48.118;11.600;2022-09-12T05:26:26;13.20;99.90
1830;DHT22;914;48.118;11.600;2022-09-12T05:28:53;13.20;99.90
1830;DHT22;914;48.118;11.600;2022-09-12T05:31:23;13.20;99.90
1830;DHT22;914;48.118;11.600;2022-09-12T05:33:51;13.20;99.90
1830;DHT22;914;48.118;11.600;2022-09-12T05:36:26;13.20;99.90
1830;DHT22;914;48.118;11.600;2022-09-12T05:38:52;13.30;99.90
1830;DHT22;914;48.118;11.600;2022-09-12T05:41:23;13.40;99.90
1830;DHT22;914;48.118;11.600;2022-09-12T05:43:54;13.40;99.90
1830;DHT22;914;48.118;11.600;2022-09-12T05:46:22;13.50;99.90
1830;DHT22;914;48.118;11.600;2022-09-12T05:48:49;13.50;99.90
1830;DHT22;914;48.118;11.600;2022-09-12T05:51:17;13.50;99.90
1830;DHT22;914;48.118;11.600;2022-09-12T05:53:46;13.50;99.90
1830;DHT22;914;48.118;11.600;2022-09-12T05:56:14;13.50;99.90
1830;DHT22;914;48.118;11.600;2022-09-12T05:58:42;13.70;99.90
1830;DHT22;914;48.118;11.600;2022-09-12T06:01:18;13.60;99.90
1830;DHT22;914;48.118;11.600;2022-09-12T06:03:52;13.50;99.90
1830;DHT22;914;48.118;11.600;2022-09-12T06:06:20;13.30;99.90
1830;DHT22;914;48.118;11.600;2022-09-12T06:08:48;13.50;99.90
1830;DHT22;914;48.118;11.600;2022-09-12T06:11:17;13.70;99.90
1830;DHT22;914;48.118;11.600;2022-09-12T06:13:43;13.90;99.90
1830;DHT22;914;48.118;11.600;2022-09-12T06:16:15;14.10;99.90
1830;DHT22;914;48.118;11.600;2022-09-12T06:18:41;14.30;99.90
1830;DHT22;914;48.118;11.600;2022-09-12T06:21:14;14.50;99.90
1830;DHT22;914;48.118;11.600;2022-09-12T06:23:40;14.60;99.90
1830;DHT22;914;48.118;11.600;2022-09-12T06:26:08;14.50;99.90
1830;DHT22;914;48.118;11.600;2022-09-12T06:28:35;14.30;99.90
1830;DHT22;914;48.118;11.600;2022-09-12T06:31:03;14.40;99.90
1830;DHT22;914;48.118;11.600;2022-09-12T06:33:32;14.60;99.90
1830;DHT22;914;48.118;11.600;2022-09-12T06:36:11;14.90;99.90
1830;DHT22;914;48.118;11.600;2022-09-12T06:38:38;15.10;99.90
1830;DHT22;914;48.118;11.600;2022-09-12T06:41:06;15.20;99.90
1830;DHT22;914;48.118;11.600;2022-09-12T06:43:33;15.30;99.90
1830;DHT22;914;48.118;11.600;2022-09-12T06:45:59;15.10;99.90
1830;DHT22;914;48.118;11.600;2022-09-12T06:48:25;15.10;99.90
1830;DHT22;914;48.118;11.600;2022-09-12T06:51:11;15.30;99.90
1830;DHT22;914;48.118;11.600;2022-09-12T06:53:38;15.60;99.90
1830;DHT22;914;48.118;11.600;2022-09-12T06:56:38;15.80;99.90
1830;DHT22;914;48.118;11.600;2022-09-12T06:58:57;15.60;99.90
1830;DHT22;914;48.118;11.600;2022-09-12T07:01:24;15.70;99.90
1830;DHT22;914;48.118;11.600;2022-09-12T07:03:53;15.70;99.90
1830;DHT22;914;48.118;11.600;2022-09-12T07:06:20;15.70;99.90
1830;DHT22;914;48.118;11.600;2022-09-12T07:08:47;15.50;99.90
1830;DHT22;914;48.118;11.600;2022-09-12T07:11:21;15.80;99.90
1830;DHT22;914;48.118;11.600;2022-09-12T07:13:49;16.20;99.90
1830;DHT22;914;48.118;11.600;2022-09-12T07:16:15;16.60;99.90
1830;DHT22;914;48.118;11.600;2022-09-12T07:18:41;16.60;99.90
1830;DHT22;914;48.118;11.600;2022-09-12T07:21:13;16.60;99.90
1830;DHT22;914;48.118;11.600;2022-09-12T07:23:39;16.80;99.90
1830;DHT22;914;48.118;11.600;2022-09-12T07:26:07;17.00;99.90
1830;DHT22;914;48.118;11.600;2022-09-12T07:28:34;17.20;99.90
1830;DHT22;914;48.118;11.600;2022-09-12T07:31:10;17.30;99.90
1830;DHT22;914;48.118;11.600;2022-09-12T07:33:37;17.50;99.90
1830;DHT22;914;48.118;11.600;2022-09-12T07:36:07;17.60;99.90
1830;DHT22;914;48.118;11.600;2022-09-12T07:38:39;17.80;99.90
1830;DHT22;914;48.118;11.600;2022-09-12T07:41:18;17.90;99.90
1830;DHT22;914;48.118;11.600;2022-09-12T07:43:44;18.00;99.90
1830;DHT22;914;48.118;11.600;2022-09-12T07:46:10;18.20;99.90
1830;DHT22;914;48.118;11.600;2022-09-12T07:48:36;18.40;99.90
1830;DHT22;914;48.118;11.600;2022-09-12T07:51:04;18.50;99.90
1830;DHT22;914;48.118;11.600;2022-09-12T07:53:32;18.60;99.90
1830;DHT22;914;48.118;11.600;2022-09-12T07:55:58;18.30;99.90
1830;DHT22;914;48.118;11.600;2022-09-12T07:58:24;18.10;99.90
1830;DHT22;914;48.118;11.600;2022-09-12T08:00:50;18.50;99.90
1830;DHT22;914;48.118;11.600;2022-09-12T08:03:16;18.70;99.90
1830;DHT22;914;48.118;11.600;2022-09-12T08:05:42;18.80;99.90
1830;DHT22;914;48.118;11.600;2022-09-12T08:08:08;18.70;99.90
1830;DHT22;914;48.118;11.600;2022-09-12T08:10:34;18.40;99.90
1830;DHT22;914;48.118;11.600;2022-09-12T08:13:00;18.10;99.90
1830;DHT22;914;48.118;11.600;2022-09-12T08:15:25;17.80;99.90
1830;DHT22;914;48.118;11.600;2022-09-12T08:17:51;18.20;99.90
1830;DHT22;914;48.118;11.600;2022-09-12T08:20:17;18.70;99.90
1830;DHT22;914;48.118;11.600;2022-09-12T08:22:43;19.00;99.90
1830;DHT22;914;48.118;11.600;2022-09-12T08:25:09;18.90;99.90
1830;DHT22;914;48.118;11.600;2022-09-12T08:27:35;18.30;99.90
1830;DHT22;914;48.118;11.600;2022-09-12T08:30:01;18.10;99.90
1830;DHT22;914;48.118;11.600;2022-09-12T08:32:26;18.70;99.90
1830;DHT22;914;48.118;11.600;2022-09-12T08:34:52;19.10;99.90
1830;DHT22;914;48.118;11.600;2022-09-12T08:37:18;19.30;99.90
1830;DHT22;914;48.118;11.600;2022-09-12T08:39:43;19.50;99.90
1830;DHT22;914;48.118;11.600;2022-09-12T08:42:09;19.20;99.90
1830;DHT22;914;48.118;11.600;2022-09-12T08:45:12;19.50;99.90
1830;DHT22;914;48.118;11.600;2022-09-12T08:47:42;19.40;99.90
1830;DHT22;914;48.118;11.600;2022-09-12T08:52:41;19.50;99.90
1830;DHT22;914;48.118;11.600;2022-09-12T08:55:31;19.40;99.80
1830;DHT22;914;48.118;11.600;2022-09-12T08:57:58;18.70;99.70
1830;DHT22;914;48.118;11.600;2022-09-12T09:00:32;18.90;99.90
1830;DHT22;914;48.118;11.600;2022-09-12T09:08:29;19.90;99.90
1830;DHT22;914;48.118;11.600;2022-09-12T09:16:36;20.30;98.90
1830;DHT22;914;48.118;11.600;2022-09-12T09:19:17;20.70;98.80
1830;DHT22;914;48.118;11.600;2022-09-12T09:22:00;19.70;97.70
1830;DHT22;914;48.118;11.600;2022-09-12T09:24:40;20.10;99.30
1830;DHT22;914;48.118;11.600;2022-09-12T09:27:20;20.60;98.10
1830;DHT22;914;48.118;11.600;2022-09-12T09:29:51;20.80;97.20
1830;DHT22;914;48.118;11.600;2022-09-12T09:32:26;20.60;98.00
1830;DHT22;914;48.118;11.600;2022-09-12T09:34:51;20.70;98.50
1830;DHT22;914;48.118;11.600;2022-09-12T09:37:34;21.10;98.50
1830;DHT22;914;48.118;11.600;2022-09-12T09:40:33;21.30;96.90
1830;DHT22;914;48.118;11.600;2022-09-12T09:43:18;21.50;96.80
1830;DHT22;914;48.118;11.600;2022-09-12T09:45:47;21.50;95.90
1830;DHT22;914;48.118;11.600;2022-09-12T09:48:26;21.20;95.80
1830;DHT22;914;48.118;11.600;2022-09-12T09:50:57;21.50;96.10
1830;DHT22;914;48.118;11.600;2022-09-12T09:53:26;21.50;96.50
1830;DHT22;914;48.118;11.600;2022-09-12T09:55:54;21.70;96.70
1830;DHT22;914;48.118;11.600;2022-09-12T09:58:31;20.70;94.80
1830;DHT22;914;48.118;11.600;2022-09-12T10:01:02;20.50;95.70
1830;DHT22;914;48.118;11.600;2022-09-12T10:03:36;21.10;95.80
1830;DHT22;914;48.118;11.600;2022-09-12T10:06:51;21.60;96.60
1830;DHT22;914;48.118;11.600;2022-09-12T10:09:09;21.70;96.60
1830;DHT22;914;48.118;11.600;2022-09-12T10:11:41;21.50;94.40
1830;DHT22;914;48.118;11.600;2022-09-12T10:14:43;21.50;95.70
1830;DHT22;914;48.118;11.600;2022-09-12T10:17:24;21.80;95.60
1830;DHT22;914;48.118;11.600;2022-09-12T10:19:50;21.60;94.70
1830;DHT22;914;48.118;11.600;2022-09-12T10:22:21;22.00;96.40
1830;DHT22;914;48.118;11.600;2022-09-12T10:24:51;22.50;97.10
1830;DHT22;914;48.118;11.600;2022-09-12T10:27:23;22.70;96.00
1830;DHT22;914;48.118;11.600;2022-09-12T10:32:41;22.50;94.50
1830;DHT22;914;48.118;11.600;2022-09-12T10:35:17;21.60;92.90
1830;DHT22;914;48.118;11.600;2022-09-12T10:38:03;21.80;95.10
1830;DHT22;914;48.118;11.600;2022-09-12T10:40:33;22.00;94.50
1830;DHT22;914;48.118;11.600;2022-09-12T10:43:01;22.10;95.50
1830;DHT22;914;48.118;11.600;2022-09-12T10:45:40;22.60;95.10
1830;DHT22;914;48.118;11.600;2022-09-12T10:48:30;22.70;93.70
1830;DHT22;914;48.118;11.600;2022-09-12T10:51:00;22.90;95.00
1830;DHT22;914;48.118;11.600;2022-09-12T10:53:38;22.80;94.30
1830;DHT22;914;48.118;11.600;2022-09-12T10:56:11;23.10;92.40
1830;DHT22;914;48.118;11.600;2022-09-12T11:01:53;23.10;92.90
1830;DHT22;914;48.118;11.600;2022-09-12T11:10:17;23.30;94.00
1830;DHT22;914;48.118;11.600;2022-09-12T11:13:13;23.40;94.50
1830;DHT22;914;48.118;11.600;2022-09-12T11:16:12;23.60;93.70
1830;DHT22;914;48.118;11.600;2022-09-12T11:19:49;23.60;92.10
1830;DHT22;914;48.118;11.600;2022-09-12T11:22:34;24.00;93.00
1830;DHT22;914;48.118;11.600;2022-09-12T11:30:53;23.70;91.10
1830;DHT22;914;48.118;11.600;2022-09-12T11:33:37;23.80;92.20
1830;DHT22;914;48.118;11.600;2022-09-12T11:36:24;23.80;89.90
1830;DHT22;914;48.118;11.600;2022-09-12T11:39:01;24.10;92.90
1830;DHT22;914;48.118;11.600;2022-09-12T11:41:33;24.80;92.50
1830;DHT22;914;48.118;11.600;2022-09-12T11:46:44;25.00;87.90
1830;DHT22;914;48.118;11.600;2022-09-12T11:51:44;25.60;84.40
1830;DHT22;914;48.118;11.600;2022-09-12T11:57:13;24.60;85.50
1830;DHT22;914;48.118;11.600;2022-09-12T11:59:56;25.10;86.10
1830;DHT22;914;48.118;11.600;2022-09-12T12:02:31;26.00;85.20
1830;DHT22;914;48.118;11.600;2022-09-12T12:07:57;26.60;83.50
1830;DHT22;914;48.118;11.600;2022-09-12T12:10:28;26.10;79.40
1830;DHT22;914;48.118;11.600;2022-09-12T12:13:00;25.60;81.70
1830;DHT22;914;48.118;11.600;2022-09-12T12:15:27;24.90;80.40
1830;DHT22;914;48.118;11.600;2022-09-12T12:18:17;24.80;87.50
1830;DHT22;914;48.118;11.600;2022-09-12T12:20:43;25.40;84.60
1830;DHT22;914;48.118;11.600;2022-09-12T12:23:28;26.20;84.50
1830;DHT22;914;48.118;11.600;2022-09-12T12:25:56;27.20;87.20
1830;DHT22;914;48.118;11.600;2022-09-12T12:31:07;27.20;77.20
1830;DHT22;914;48.118;11.600;2022-09-12T12:36:07;27.50;81.50
1830;DHT22;914;48.118;11.600;2022-09-12T12:38:37;27.60;81.10
1830;DHT22;914;48.118;11.600;2022-09-12T12:43:42;26.70;79.00
1830;DHT22;914;48.118;11.600;2022-09-12T12:46:13;26.80;77.40
1830;DHT22;914;48.118;11.600;2022-09-12T12:51:53;27.70;81.10
1830;DHT22;914;48.118;11.600;2022-09-12T12:57:22;28.00;74.40
1830;DHT22;914;48.118;11.600;2022-09-12T13:02:32;27.50;76.90
1830;DHT22;914;48.118;11.600;2022-09-12T13:05:01;27.70;71.50
1830;DHT22;914;48.118;11.600;2022-09-12T13:07:35;26.50;71.40
1830;DHT22;914;48.118;11.600;2022-09-12T13:10:03;26.40;74.30
1830;DHT22;914;48.118;11.600;2022-09-12T13:12:34;26.40;76.60
1830;DHT22;914;48.118;11.600;2022-09-12T13:15:02;25.80;79.60
1830;DHT22;914;48.118;11.600;2022-09-12T13:17:42;26.20;76.30
1830;DHT22;914;48.118;11.600;2022-09-12T13:20:15;26.00;75.60
1830;DHT22;914;48.118;11.600;2022-09-12T13:22:47;26.50;78.60
1830;DHT22;914;48.118;11.600;2022-09-12T13:25:34;25.40;74.90
1830;DHT22;914;48.118;11.600;2022-09-12T13:36:06;25.90;80.40
1830;DHT22;914;48.118;11.600;2022-09-12T13:42:05;26.60;76.40
1830;DHT22;914;48.118;11.600;2022-09-12T13:44:42;27.00;74.50
1830;DHT22;914;48.118;11.600;2022-09-12T13:47:14;26.80;80.10
1830;DHT22;914;48.118;11.600;2022-09-12T13:49:41;27.40;78.00
1830;DHT22;914;48.118;11.600;2022-09-12T13:52:13;28.00;79.10
1830;DHT22;914;48.118;11.600;2022-09-12T13:54:39;28.00;74.90
1830;DHT22;914;48.118;11.600;2022-09-12T13:57:05;27.50;72.00
1830;DHT22;914;48.118;11.600;2022-09-12T13:59:41;25.50;74.70
1830;DHT22;914;48.118;11.600;2022-09-12T14:02:21;25.20;78.30
1830;DHT22;914;48.118;11.600;2022-09-12T14:04:48;25.50;79.90
1830;DHT22;914;48.118;11.600;2022-09-12T14:10:36;25.90;76.70
1830;DHT22;914;48.118;11.600;2022-09-12T14:13:25;25.30;75.70
1830;DHT22;914;48.118;11.600;2022-09-12T14:15:52;25.40;79.60
1830;DHT22;914;48.118;11.600;2022-09-12T14:18:29;24.80;76.30
1830;DHT22;914;48.118;11.600;2022-09-12T14:21:08;24.90;79.00
1830;DHT22;914;48.118;11.600;2022-09-12T14:23:38;25.20;80.70
1830;DHT22;914;48.118;11.600;2022-09-12T14:26:09;24.60;77.60
1830;DHT22;914;48.118;11.600;2022-09-12T14:28:39;24.50;78.40
1830;DHT22;914;48.118;11.600;2022-09-12T14:31:22;24.60;85.30
1830;DHT22;914;48.118;11.600;2022-09-12T14:33:50;24.10;79.70
1830;DHT22;914;48.118;11.600;2022-09-12T14:36:30;24.10;79.50
1830;DHT22;914;48.118;11.600;2022-09-12T14:39:01;24.30;81.50
1830;DHT22;914;48.118;11.600;2022-09-12T14:41:30;23.90;80.80
1830;DHT22;914;48.118;11.600;2022-09-12T14:43:58;23.80;82.50
1830;DHT22;914;48.118;11.600;2022-09-12T14:46:36;24.00;81.60
1830;DHT22;914;48.118;11.600;2022-09-12T14:57:29;23.40;81.30
1830;DHT22;914;48.118;11.600;2022-09-12T15:02:33;23.90;81.20
1830;DHT22;914;48.118;11.600;2022-09-12T15:10:15;23.70;81.70
1830;DHT22;914;48.118;11.600;2022-09-12T15:12:41;24.00;82.40
1830;DHT22;914;48.118;11.600;2022-09-12T15:15:18;23.30;81.20
1830;DHT22;914;48.118;11.600;2022-09-12T15:17:44;23.50;82.20
1830;DHT22;914;48.118;11.600;2022-09-12T15:20:11;23.70;83.70
1830;DHT22;914;48.118;11.600;2022-09-12T15:22:37;24.00;86.30
1830;DHT22;914;48.118;11.600;2022-09-12T15:25:04;23.50;81.80
1830;DHT22;914;48.118;11.600;2022-09-12T15:27:30;23.80;82.50
1830;DHT22;914;48.118;11.600;2022-09-12T15:29:57;23.90;81.10
1830;DHT22;914;48.118;11.600;2022-09-12T15:32:24;24.10;84.50
1830;DHT22;914;48.118;11.600;2022-09-12T15:34:50;24.10;82.90
1830;DHT22;914;48.118;11.600;2022-09-12T15:37:18;24.20;82.30
1830;DHT22;914;48.118;11.600;2022-09-12T15:39:45;24.10;82.30
1830;DHT22;914;48.118;11.600;2022-09-12T15:42:12;23.90;81.10
1830;DHT22;914;48.118;11.600;2022-09-12T15:44:38;23.60;81.60
1830;DHT22;914;48.118;11.600;2022-09-12T15:47:04;23.30;81.10
1830;DHT22;914;48.118;11.600;2022-09-12T15:49:30;23.00;82.90
1830;DHT22;914;48.118;11.600;2022-09-12T15:51:56;23.50;86.80
1830;DHT22;914;48.118;11.600;2022-09-12T15:54:22;23.60;86.70
1830;DHT22;914;48.118;11.600;2022-09-12T15:56:48;23.70;83.40
1830;DHT22;914;48.118;11.600;2022-09-12T15:59:14;23.70;82.30
1830;DHT22;914;48.118;11.600;2022-09-12T16:01:39;23.90;83.00
1830;DHT22;914;48.118;11.600;2022-09-12T16:04:20;23.30;82.10
1830;DHT22;914;48.118;11.600;2022-09-12T16:06:46;23.70;82.70
1830;DHT22;914;48.118;11.600;2022-09-12T16:09:12;24.00;85.20
1830;DHT22;914;48.118;11.600;2022-09-12T16:11:37;24.10;85.90
1830;DHT22;914;48.118;11.600;2022-09-12T16:14:04;24.00;84.20
1830;DHT22;914;48.118;11.600;2022-09-12T16:16:30;24.00;84.10
1830;DHT22;914;48.118;11.600;2022-09-12T16:18:56;24.20;86.10
1830;DHT22;914;48.118;11.600;2022-09-12T16:21:22;24.00;81.30
1830;DHT22;914;48.118;11.600;2022-09-12T16:23:48;24.00;81.10
1830;DHT22;914;48.118;11.600;2022-09-12T16:26:14;24.20;82.50
1830;DHT22;914;48.118;11.600;2022-09-12T16:28:40;24.10;83.80
1830;DHT22;914;48.118;11.600;2022-09-12T16:31:07;24.20;88.10
1830;DHT22;914;48.118;11.600;2022-09-12T16:33:35;24.20;85.00
1830;DHT22;914;48.118;11.600;2022-09-12T16:36:06;24.10;85.20
1830;DHT22;914;48.118;11.600;2022-09-12T16:38:33;24.00;88.50
1830;DHT22;914;48.118;11.600;2022-09-12T16:41:04;23.60;83.30
1830;DHT22;914;48.118;11.600;2022-09-12T16:43:32;23.60;85.10
1830;DHT22;914;48.118;11.600;2022-09-12T16:46:11;23.40;84.70
1830;DHT22;914;48.118;11.600;2022-09-12T16:48:44;23.50;84.10
1830;DHT22;914;48.118;11.600;2022-09-12T16:51:10;23.40;85.30
1830;DHT22;914;48.118;11.600;2022-09-12T16:53:37;23.40;85.90
1830;DHT22;914;48.118;11.600;2022-09-12T16:56:07;23.40;86.00
1830;DHT22;914;48.118;11.600;2022-09-12T16:58:38;23.50;86.40
1830;DHT22;914;48.118;11.600;2022-09-12T17:01:06;23.50;88.80
1830;DHT22;914;48.118;11.600;2022-09-12T17:03:33;23.50;88.00
1830;DHT22;914;48.118;11.600;2022-09-12T17:06:14;23.60;86.70
1830;DHT22;914;48.118;11.600;2022-09-12T17:08:44;23.50;87.50
1830;DHT22;914;48.118;11.600;2022-09-12T17:11:15;23.30;86.50
1830;DHT22;914;48.118;11.600;2022-09-12T17:13:48;23.10;87.20
1830;DHT22;914;48.118;11.600;2022-09-12T17:16:14;23.10;88.50
1830;DHT22;914;48.118;11.600;2022-09-12T17:18:40;23.30;88.50
1830;DHT22;914;48.118;11.600;2022-09-12T17:21:07;23.30;89.20
1830;DHT22;914;48.118;11.600;2022-09-12T17:23:33;23.20;88.10
1830;DHT22;914;48.118;11.600;2022-09-12T17:25:59;23.00;89.60
1830;DHT22;914;48.118;11.600;2022-09-12T17:28:25;23.00;89.10
1830;DHT22;914;48.118;11.600;2022-09-12T17:30:56;22.90;89.40
1830;DHT22;914;48.118;11.600;2022-09-12T17:33:23;22.90;89.60
1830;DHT22;914;48.118;11.600;2022-09-12T17:35:49;22.70;89.30
1830;DHT22;914;48.118;11.600;2022-09-12T17:38:15;22.40;89.80
1830;DHT22;914;48.118;11.600;2022-09-12T17:40:41;22.30;90.30
1830;DHT22;914;48.118;11.600;2022-09-12T17:43:08;22.40;90.40
1830;DHT22;914;48.118;11.600;2022-09-12T17:45:36;22.30;90.50
1830;DHT22;914;48.118;11.600;2022-09-12T17:48:03;22.30;90.80
1830;DHT22;914;48.118;11.600;2022-09-12T17:50:34;22.30;90.70
1830;DHT22;914;48.118;11.600;2022-09-12T17:53:00;22.40;91.00
1830;DHT22;914;48.118;11.600;2022-09-12T17:55:25;22.50;91.30
1830;DHT22;914;48.118;11.600;2022-09-12T17:57:51;22.40;91.10
1830;DHT22;914;48.118;11.600;2022-09-12T18:00:17;22.40;91.60
1830;DHT22;914;48.118;11.600;2022-09-12T18:03:03;22.30;91.90
1830;DHT22;914;48.118;11.600;2022-09-12T18:05:28;22.30;92.30
1830;DHT22;914;48.118;11.600;2022-09-12T18:07:54;22.20;91.90
1830;DHT22;914;48.118;11.600;2022-09-12T18:10:20;22.10;91.80
1830;DHT22;914;48.118;11.600;2022-09-12T18:12:45;21.90;91.80
1830;DHT22;914;48.118;11.600;2022-09-12T18:15:12;22.00;92.50
1830;DHT22;914;48.118;11.600;2022-09-12T18:17:38;21.90;93.00
1830;DHT22;914;48.118;11.600;2022-09-12T18:20:04;21.90;92.90
1830;DHT22;914;48.118;11.600;2022-09-12T18:22:31;21.80;93.10
1830;DHT22;914;48.118;11.600;2022-09-12T18:24:57;21.80;93.40
1830;DHT22;914;48.118;11.600;2022-09-12T18:27:22;21.80;93.40
1830;DHT22;914;48.118;11.600;2022-09-12T18:29:48;21.80;93.30
1830;DHT22;914;48.118;11.600;2022-09-12T18:32:14;21.70;93.50
1830;DHT22;914;48.118;11.600;2022-09-12T18:34:40;21.60;93.60